Latest Weather Observations for Holsworthy

IDN60901

Issued at 8:31 am EST Tuesday 30 May 2017 (issued every 10 minutes, with the page automatically refreshed every 10 minutes)

About weather observations | Map of Sydney area stations | Latest observations for Sydney area | Other Formats
Station Details ID: 066161 Name: HOLSWORTHY AERODROME AWS Lat: -33.99 Lon: 150.95 Height: 68.16 m
Data from the previous 72 hours. | See also: Recent months at Holsworthy
Date/Time
EST
Temp
°C
App
Temp
°C
Dew
Point
°C
Rel
Hum
%
Delta-T
°C
Wind Press
QNH
hPa
Press
MSL
hPa
Rain since
9am
mm
Dir  Spd
km/h
Gust
km/h
Spd
kts
Gust
kts
30/08:30am 6.2 3.5 2.8 79 1.4 WNW 6 11 3 6 1023.1 1023.1 0.0
30/08:00am 4.4 1.7 2.6 88 0.7 W 6 9 3 5 1023.1 1023.1 0.0
30/07:30am 2.6 0.5 1.6 93 0.4 W 2 9 1 5 1023.2 1023.2 0.0
30/07:00am 1.5 -1.5 0.5 93 0.4 W 6 7 3 4 1023.0 1023.0 0.0
30/06:30am 2.1 -1.0 1.1 93 0.4 SW 7 9 4 5 1022.8 1022.8 0.0
30/06:00am 1.7 -1.9 0.7 93 0.4 WSW 9 11 5 6 1022.5 1022.5 0.0
30/05:30am 1.6 -1.5 0.3 91 0.5 WNW 6 7 3 4 1022.4 1022.4 0.0
30/05:00am 2.5 -0.4 1.2 91 0.5 SW 6 7 3 4 1022.3 1022.3 0.0
30/04:30am 2.4 -0.8 0.8 89 0.6 SW 7 9 4 5 1022.2 1022.2 0.0
30/04:00am 3.2 0.3 1.4 88 0.7 WSW 6 6 3 3 1022.3 1022.3 0.0
30/03:30am 3.5 1.3 0.9 83 1.0 SW 2 7 1 4 1022.4 1022.4 0.0
30/03:00am 4.7 1.2 1.2 78 1.4 WSW 9 13 5 7 1022.3 1022.3 0.0
30/02:30am 5.6 1.8 1.7 76 1.6 WSW 11 17 6 9 1022.3 1022.3 0.0
30/02:00am 6.3 2.2 2.2 75 1.7 SSW 13 17 7 9 1022.3 1022.3 0.0
30/01:30am 4.7 1.6 1.6 80 1.2 SW 7 9 4 5 1022.6 1022.6 0.0
30/01:00am 4.9 1.5 1.7 80 1.3 SW 9 13 5 7 1022.3 1022.3 0.0
30/12:30am 4.5 1.0 1.5 81 1.2 SW 9 11 5 6 1022.5 1022.5 0.0
30/12:00am 4.9 1.5 1.6 79 1.3 WSW 9 13 5 7 1022.7 1022.7 0.0
 
Date/Time
EST
Temp
°C
App
Temp
°C
Dew
Point
°C
Rel
Hum
%
Delta-T
°C
Wind Press
QNH
hPa
Press
MSL
hPa
Rain since
9am
mm
Dir  Spd
km/h
Gust
km/h
Spd
kts
Gust
kts
29/11:30pm 4.8 1.0 1.8 81 1.2 WSW 11 13 6 7 1022.8 1022.8 0.0
29/11:00pm 5.3 2.2 1.6 77 1.5 WSW 7 9 4 5 1022.9 1022.9 0.0
29/10:30pm 5.5 2.0 1.4 75 1.6 WSW 9 11 5 6 1022.8 1022.8 0.0
29/10:00pm 7.1 4.2 1.6 68 2.2 SW 6 11 3 6 1022.9 1022.9 0.0
29/09:30pm 7.5 3.8 2.2 69 2.2 SW 11 15 6 8 1022.7 1022.7 0.0
29/09:00pm 7.7 4.2 1.5 65 2.5 SW 9 13 5 7 1022.6 1022.6 0.0
29/08:30pm 8.4 5.3 1.6 62 2.8 SW 7 11 4 6 1022.4 1022.4 0.0
29/08:00pm 9.0 5.6 1.7 60 3.0 WSW 9 11 5 6 1022.2 1022.2 0.0
29/07:30pm 9.9 5.4 2.0 58 3.3 SW 15 20 8 11 1021.7 1021.6 0.0
29/07:00pm 10.6 6.0 1.7 54 3.7 SW 15 26 8 14 1021.5 1021.4 0.0
29/06:30pm 11.3 6.7 1.5 51 4.1 SW 15 20 8 11 1021.2 1021.1 0.0
29/06:00pm 10.5 6.8 2.1 56 3.6 WSW 11 17 6 9 1020.9 1020.8 0.0
29/05:30pm 10.6 7.6 2.2 56 3.6 WSW 7 11 4 6 1020.4 1020.3 0.0
29/05:00pm 12.5 9.1 1.8 48 4.6 WSW 9 13 5 7 1020.1 1020.0 0.0
29/04:30pm 14.6 10.8 1.8 42 5.6 W 11 15 6 8 1019.7 1019.6 0.0
29/04:00pm 15.7 11.9 1.8 39 6.1 SW 11 15 6 8 1019.4 1019.3 0.0
29/03:30pm 16.2 11.6 1.5 37 6.5 WSW 15 22 8 12 1019.0 1018.9 0.0
29/03:00pm 16.2 10.7 0.7 35 6.7 SW 19 28 10 15 1018.8 1018.7 0.0
29/02:30pm 16.4 11.0 1.3 36 6.7 SW 19 26 10 14 1018.4 1018.3 0.0
29/02:00pm 16.3 10.8 0.8 35 6.7 WSW 19 28 10 15 1018.0 1017.9 0.0
29/01:30pm 15.9 9.4 0.5 35 6.6 WSW 24 39 13 21 1017.9 1017.8 0.0
29/01:00pm 16.1 10.5 1.0 36 6.6 WSW 20 35 11 19 1018.0 1017.9 0.0
29/12:30pm 15.7 10.1 1.1 37 6.4 WSW 20 37 11 20 1017.8 1017.7 0.0
29/12:00pm 15.1 7.8 0.2 36 6.3 WSW 28 43 15 23 1018.1 1018.0 0.0
29/11:30am 14.9 8.5 1.1 39 6.0 WSW 24 35 13 19 1018.2 1018.1 0.0
29/11:19am 14.3 7.1 0.9 40 5.8 WSW 28 50 15 27 1018.2 1018.1 0.0
29/11:00am 14.0 6.7 0.3 39 5.8 W 28 41 15 22 1018.3 1018.2 0.0
29/10:46am 13.5 6.2 0.2 40 5.6 W 28 46 15 25 1018.3 1018.2 0.0
29/10:30am 13.6 6.3 0.3 40 5.6 WSW 28 39 15 21 1018.6 1018.5 0.0
29/10:00am 13.5 7.5 1.2 43 5.3 WSW 22 35 12 19 1018.5 1018.4 0.0
29/09:30am 13.2 7.4 2.1 47 4.8 WSW 22 37 12 20 1018.2 1018.1 0.0
29/09:00am 12.5 6.3 2.1 49 4.5 WSW 24 39 13 21 1017.7 1017.6 0.0
29/08:30am 11.9 6.6 2.9 54 3.9 W 20 35 11 19 1017.5 1017.4 0.0
29/08:00am 11.2 7.0 3.7 60 3.3 W 15 20 8 11 1017.1 1017.0 0.0
29/07:30am 10.1 6.7 3.8 65 2.8 W 11 17 6 9 1016.8 1016.7 0.0
29/07:00am 8.8 6.3 4.0 72 2.1 WSW 6 11 3 6 1016.5 1016.4 0.0
29/06:30am 8.7 5.7 4.3 74 1.9 W 9 15 5 8 1016.0 1015.9 0.0
29/06:00am 8.7 5.7 4.1 73 2.0 WNW 9 13 5 7 1015.8 1015.7 0.0
29/05:30am 9.2 5.2 5.0 75 1.9 SW 15 19 8 10 1015.6 1015.5 0.0
29/05:00am 7.4 5.4 4.5 82 1.3 W 4 7 2 4 1014.9 1014.8 0.0
29/04:30am 6.7 4.0 3.7 81 1.3 WSW 7 9 4 5 1014.5 1014.4 0.0
29/04:00am 7.8 5.7 3.8 76 1.7 WSW 4 7 2 4 1014.4 1014.3 0.0
29/03:30am 8.0 5.3 3.5 73 1.9 WSW 7 9 4 5 1014.4 1014.3 0.0
29/03:00am 9.1 5.6 3.7 69 2.4 W 11 13 6 7 1014.1 1014.1 0.0
29/02:30am 9.0 5.2 3.8 70 2.3 W 13 17 7 9 1014.0 1014.0 0.0
29/02:00am 10.1 6.7 4.0 66 2.7 W 11 17 6 9 1014.1 1014.1 0.0
29/01:30am 9.7 7.0 3.9 67 2.6 W 7 11 4 6 1014.2 1014.2 0.0
29/01:00am 10.9 7.9 4.1 63 3.0 WSW 9 15 5 8 1014.2 1014.2 0.0
29/12:30am 11.7 8.8 4.4 61 3.3 SW 9 17 5 9 1014.0 1014.0 0.0
29/12:00am 12.8 9.5 4.3 56 3.9 WSW 11 15 6 8 1013.8 1013.8 0.0
 
Date/Time
EST
Temp
°C
App
Temp
°C
Dew
Point
°C
Rel
Hum
%
Delta-T
°C
Wind Press
QNH
hPa
Press
MSL
hPa
Rain since
9am
mm
Dir  Spd
km/h
Gust
km/h
Spd
kts
Gust
kts
28/11:30pm 13.3 8.9 4.7 56 4.0 WSW 17 22 9 12 1013.6 1013.6 0.0
28/11:00pm 13.0 9.9 5.4 60 3.6 SW 11 15 6 8 1013.4 1013.4 0.0
28/10:30pm 13.8 10.3 5.4 57 4.0 SW 13 19 7 10 1013.4 1013.4 0.0
28/10:00pm 13.9 10.5 6.0 59 3.8 WSW 13 17 7 9 1012.8 1012.8 0.0
28/09:30pm 14.3 11.9 6.9 61 3.6 W 9 15 5 8 1012.5 1012.5 0.0
28/09:00pm 14.8 12.3 8.1 64 3.4 W 11 19 6 10 1012.5 1012.5 0.0
28/08:30pm 15.3 12.8 8.3 63 3.5 WSW 11 17 6 9 1011.8 1011.8 0.0
28/08:00pm 16.2 13.8 8.7 61 3.8 WNW 11 17 6 9 1012.0 1012.0 0.0
28/07:30pm 16.4 14.6 9.3 63 3.7 NW 9 13 5 7 1011.3 1011.3 0.0
28/07:00pm 17.1 15.1 8.8 58 4.3 NW 9 15 5 8 1010.9 1010.9 0.0
28/06:30pm 17.6 13.8 9.0 57 4.5 NW 19 35 10 19 1010.6 1010.6 0.0
28/06:00pm 18.5 16.8 8.5 52 5.2 NNW 7 15 4 8 1009.4 1009.3 0.0
28/05:30pm 17.2 15.6 8.1 55 4.6 WNW 6 9 3 5 1009.2 1009.1 0.0
28/05:00pm 19.0 16.9 8.4 50 5.5 W 9 13 5 7 1009.0 1008.9 0.0
28/04:30pm 19.9 16.9 7.6 45 6.3 WNW 13 26 7 14 1008.7 1008.6 0.0
28/04:00pm 20.5 19.1 9.4 49 5.9 NNW 7 11 4 6 1008.7 1008.6 0.0
28/03:30pm 20.7 17.9 8.4 45 6.5 NNW 13 22 7 12 1008.8 1008.7 0.0
28/03:00pm 21.7 17.9 8.9 44 6.8 NNW 19 33 10 18 1008.9 1008.8 0.0
28/02:30pm 22.3 18.5 9.1 43 7.1 N 19 32 10 17 1008.9 1008.8 0.0
28/02:00pm 22.6 19.7 9.7 44 7.0 NNW 15 24 8 13 1009.2 1009.1 0.0
28/01:30pm 22.1 18.7 9.3 44 6.9 NNW 17 28 9 15 1009.5 1009.5 0.0
28/01:00pm 21.7 19.3 10.2 48 6.3 NNW 13 22 7 12 1009.9 1009.9 0.0
28/12:30pm 21.6 19.7 11.9 54 5.4 WNW 13 20 7 11 1010.2 1010.2 0.0
28/12:00pm 21.0 19.9 11.9 56 5.1 NW 9 17 5 9 1010.8 1010.8 0.0
28/11:30am 19.3 16.5 11.3 60 4.4 NNW 17 26 9 14 1011.4 1011.4 0.0
28/11:00am 18.6 17.3 12.4 67 3.5 N 11 17 6 9 1012.0 1012.0 0.0
28/10:30am 16.5 15.2 11.4 72 2.8 NNE 9 13 5 7 1012.5 1012.5 0.0
28/10:00am 14.4 13.6 11.0 80 1.8 N 6 11 3 6 1012.8 1012.8 0.0
28/09:30am 12.6 11.1 10.5 87 1.1 NNW 9 13 5 7 1013.0 1013.0 0.0
28/09:00am 11.3 10.1 10.2 93 0.6 WNW 7 11 4 6 1013.3 1013.3 0.0
28/08:30am 10.2 9.1 9.9 98 0.2 W 6 9 3 5 1013.4 1013.4 0.0
28/08:03am 8.8 7.4 8.7 99 0.0 SW 6 9 3 5 1013.5 1013.5 0.0
28/08:02am 8.8 7.4 8.7 99 0.0 SW 6 11 3 6 1013.5 1013.5 0.0
28/08:00am 8.6 6.9 8.5 99 0.0 SW 7 11 4 6 1013.5 1013.5 0.0
28/07:30am 7.3 4.9 7.0 98 0.1 SW 9 11 5 6 1013.6 1013.6 0.0
28/07:00am 7.3 5.5 7.0 98 0.1 WNW 6 11 3 6 1013.3 1013.3 0.0
28/06:30am 7.6 5.6 7.3 98 0.1 W 7 9 4 5 1013.3 1013.3 0.0
28/06:00am 7.5 5.1 7.2 98 0.1 WSW 9 11 5 6 1013.1 1013.1 0.0
28/05:30am 7.5 6.1 7.2 98 0.1 SW 4 9 2 5 1013.3 1013.3 0.0
28/05:00am 7.1 4.6 6.7 97 0.2 SW 9 11 5 6 1013.2 1013.2 0.0
28/04:30am 7.2 5.7 6.8 97 0.2 WSW 4 9 2 5 1013.4 1013.4 0.0
28/04:00am 7.2 6.4 6.5 95 0.3 CALM 0 0 0 0 1013.5 1013.5 0.0
28/03:43am 6.5 5.5 5.6 94 0.4 CALM 0 0 0 0 1013.6 1013.6 0.0
28/03:38am 6.6 5.6 5.7 94 0.4 CALM 0 0 0 0 1013.7 1013.7 0.0
28/03:30am 7.5 6.8 6.8 95 0.3 CALM 0 0 0 0 1013.8 1013.8 0.0
28/03:23am 7.9 6.8 7.1 95 0.4 SW 2 7 1 4 1013.9 1013.9 0.0
28/03:18am 7.9 6.8 7.1 95 0.4 SW 2 7 1 4 1013.9 1013.9 0.0
28/03:00am 7.9 6.1 7.1 95 0.4 SW 6 7 3 4 1014.4 1014.3 0.0
28/02:39am 7.2 5.0 6.0 92 0.5 WSW 7 11 4 6 1014.8 1014.7 0.0
28/02:31am 8.0 6.1 6.8 92 0.6 WSW 6 7 3 4 1014.8 1014.7 0.0
28/02:30am 8.1 6.6 6.9 92 0.6 WSW 4 7 2 4 1014.8 1014.7 0.0
28/02:01am 9.7 8.3 8.8 94 0.4 SW 6 7 3 4 1015.0 1014.9 0.0
28/02:00am 9.5 8.0 8.6 94 0.4 SW 6 7 3 4 1015.1 1015.0 0.0
28/01:30am 9.4 7.9 8.5 94 0.4 WSW 6 9 3 5 1015.3 1015.2 0.0
28/01:28am 9.5 8.0 8.6 94 0.4 W 6 7 3 4 1015.4 1015.3 0.0
28/01:00am 9.7 9.4 8.8 94 0.4 CALM 0 0 0 0 1015.6 1015.5 0.0
28/12:30am 9.8 9.1 8.7 93 0.5 ESE 2 6 1 3 1015.9 1015.8 0.0
28/12:00am 10.0 9.8 8.9 93 0.5 CALM 0 0 0 0 1016.3 1016.2 0.0
 
Date/Time
EST
Temp
°C
App
Temp
°C
Dew
Point
°C
Rel
Hum
%
Delta-T
°C
Wind Press
QNH
hPa
Press
MSL
hPa
Rain since
9am
mm
Dir  Spd
km/h
Gust
km/h
Spd
kts
Gust
kts
27/11:30pm 10.4 9.5 9.3 93 0.5 ESE 4 6 2 3 1016.6 1016.5 0.0
27/11:00pm 11.0 9.9 9.8 92 0.6 ESE 6 7 3 4 1016.9 1016.8 0.0
27/10:30pm 11.5 10.4 10.1 91 0.7 ENE 6 7 3 4 1017.1 1017.0 0.0
27/10:00pm 12.4 11.4 11.0 91 0.7 E 7 9 4 5 1017.3 1017.2 0.0
27/09:30pm 12.9 12.0 11.3 90 0.8 ENE 7 7 4 4 1017.5 1017.4 0.0
27/09:00pm 13.1 12.4 11.3 89 1.0 E 6 7 3 4 1017.5 1017.4 0.0
27/08:30pm 13.5 12.7 11.7 89 1.0 E 7 9 4 5 1017.5 1017.4 0.0
27/08:00pm 13.6 12.8 11.8 89 1.0 E 7 7 4 4 1017.7 1017.6 0.0
27/07:30pm 14.1 13.6 12.0 87 1.1 E 6 7 3 4 1017.7 1017.6 0.0
27/07:00pm 14.6 13.9 12.1 85 1.4 E 7 7 4 4 1017.8 1017.7 0.0
27/06:30pm 15.4 14.9 12.5 83 1.6 E 7 11 4 6 1017.8 1017.7 0.0
27/06:00pm 15.8 15.3 12.7 82 1.7 E 7 9 4 5 1017.6 1017.5 0.0
27/05:30pm 16.3 15.9 13.0 81 1.8 E 7 11 4 6 1017.4 1017.3 0.0
27/05:00pm 17.1 16.8 13.2 78 2.2 ESE 7 9 4 5 1017.2 1017.1 0.0
27/04:30pm 18.1 17.1 13.4 74 2.7 ESE 11 15 6 8 1017.1 1017.0 0.0
27/04:00pm 19.5 19.0 12.5 64 3.9 ENE 7 11 4 6 1017.3 1017.2 0.0
27/03:30pm 20.0 18.4 10.1 53 5.3 NNE 9 13 5 7 1017.4 1017.3 0.0
27/03:00pm 20.1 18.6 10.5 54 5.2 NNE 9 13 5 7 1017.5 1017.4 0.0
27/02:30pm 20.2 18.8 10.9 55 5.1 NNE 9 13 5 7 1017.5 1017.4 0.0
27/02:00pm 20.1 18.7 10.8 55 5.1 NNE 9 15 5 8 1017.8 1017.7 0.0
27/01:30pm 20.1 19.3 11.6 58 4.7 E 7 13 4 7 1018.2 1018.1 0.0
27/01:00pm 18.4 16.8 11.5 64 3.8 NNE 11 13 6 7 1018.7 1018.6 0.0
27/12:30pm 19.0 17.7 11.3 61 4.2 NNE 9 15 5 8 1019.2 1019.1 0.0
27/12:00pm 19.6 18.9 12.1 62 4.2 NNE 7 13 4 7 1019.8 1019.7 0.0
27/11:30am 19.2 18.7 12.7 66 3.7 W 7 13 4 7 1020.4 1020.3 0.0
27/11:00am 18.4 17.4 12.4 68 3.3 WSW 9 13 5 7 1021.1 1021.0 0.0
27/10:30am 16.8 15.6 11.7 72 2.8 WNW 9 13 5 7 1021.6 1021.5 0.0
27/10:00am 16.7 15.6 11.8 73 2.7 W 9 13 5 7 1021.8 1021.8 0.0
27/09:30am 15.6 14.0 11.6 77 2.2 W 11 15 6 8 1021.9 1021.9 0.0
27/09:00am 14.2 12.7 11.9 86 1.2 W 11 15 6 8 1021.9 1021.9 0.0

Latest Capital City Observations: Canberra | Sydney | Melbourne | Brisbane | Adelaide | Perth | Hobart | Darwin

Other Formats:

Comma delimited format used in spreadsheet applications
http://www.bom.gov.au/fwo/IDN60901/IDN60901.95761.axf

JavaScript Object Notation format (JSON) in row-major order
http://www.bom.gov.au/fwo/IDN60901/IDN60901.95761.json